Weather at Schuff Aviation Heliport

Public forecast

Using degrees Fahrenheit for public forecast. Weather courtesy of forecast.io.

Closest aviation weather report (METAR) to Schuff Aviation Heliport

Closest report is Phoenix Sky Harbor International Airport, 4.7 nm (8.7 km) E.

2024/06/14 14:51 (retrieved 13 minutes ago)

KPHX 141451Z 31005KT 10SM FEW150 32/02 A2984 RMK AO2 SLP081 T03220022 53021

Closest aviation forecast (TAF) to Schuff Aviation Heliport

Closest forecast is Phoenix Sky Harbor International Airport, 4.7 nm (8.7 km) E.

2024/06/14 12:30 (retrieved 3 hours ago)

TAF KPHX 141127Z 1412/1518 12005KT P6SM SKC FM141600 VRB05KT P6SM SKC FM142300 25007KT P6SM SKC FM150900 10005KT P6SM SKC